createdAt,value
2019-04-25T00:01:03.334Z,13.90
2019-04-25T00:02:15.769Z,13.90
2019-04-25T00:03:22.333Z,13.80
2019-04-25T00:04:27.564Z,13.80
2019-04-25T00:05:33.044Z,13.80
2019-04-25T00:06:38.906Z,13.70
2019-04-25T00:07:43.861Z,13.70
2019-04-25T00:08:48.195Z,13.70
2019-04-25T00:09:53.815Z,13.60
2019-04-25T00:10:58.193Z,13.70
2019-04-25T00:12:02.654Z,13.70
2019-04-25T00:13:07.473Z,13.70
2019-04-25T00:14:13.346Z,13.70
2019-04-25T00:15:18.153Z,13.70
2019-04-25T00:16:23.784Z,13.70
2019-04-25T00:17:28.102Z,13.70
2019-04-25T00:18:32.446Z,13.60
2019-04-25T00:19:36.758Z,13.70
2019-04-25T00:20:44.961Z,13.70
2019-04-25T00:22:17.327Z,13.70
2019-04-25T00:23:22.106Z,13.70
2019-04-25T00:24:50.095Z,13.60
2019-04-25T00:26:05.085Z,13.60
2019-04-25T00:27:09.720Z,13.60
2019-04-25T00:28:14.067Z,13.60
2019-04-25T00:29:18.367Z,13.60
2019-04-25T00:30:24.609Z,13.50
2019-04-25T00:31:28.835Z,13.50
2019-04-25T00:32:33.433Z,13.50
2019-04-25T00:33:37.744Z,13.50
2019-04-25T00:34:43.541Z,13.40
2019-04-25T00:35:48.377Z,13.30
2019-04-25T00:36:53.167Z,13.30
2019-04-25T00:37:57.515Z,13.20
2019-04-25T00:39:02.033Z,13.20
2019-04-25T00:40:07.548Z,13.20
2019-04-25T00:41:11.892Z,13.30
2019-04-25T00:42:16.242Z,13.30
2019-04-25T00:43:21.467Z,13.30
2019-04-25T00:44:26.034Z,13.30
2019-04-25T00:45:31.709Z,13.30
2019-04-25T00:46:36.211Z,13.30
2019-04-25T00:47:42.444Z,13.30
2019-04-25T00:48:46.432Z,13.40
2019-04-25T00:49:52.149Z,13.40
2019-04-25T00:50:56.625Z,13.40
2019-04-25T00:52:01.995Z,13.30
2019-04-25T00:53:06.327Z,13.40
2019-04-25T00:54:11.877Z,13.30
2019-04-25T00:55:26.089Z,13.30
2019-04-25T00:56:23.866Z,13.30
2019-04-25T00:57:28.906Z,13.40
2019-04-25T00:58:44.038Z,13.30
2019-04-25T00:59:57.479Z,13.30
2019-04-25T01:01:17.337Z,13.30
2019-04-25T01:02:31.419Z,13.20
2019-04-25T01:03:36.176Z,13.20
2019-04-25T01:04:41.961Z,13.20
2019-04-25T01:05:47.464Z,13.20
2019-04-25T01:06:52.910Z,13.20
2019-04-25T01:07:57.606Z,13.30
2019-04-25T01:09:02.487Z,13.30
2019-04-25T01:10:09.143Z,13.20
2019-04-25T01:11:13.367Z,13.20
2019-04-25T01:12:17.874Z,13.20
2019-04-25T01:13:22.379Z,13.20
2019-04-25T01:14:26.792Z,13.10
2019-04-25T01:15:31.454Z,13.10
2019-04-25T01:16:35.927Z,13.00
2019-04-25T01:17:41.306Z,13.10
2019-04-25T01:18:46.653Z,13.10
2019-04-25T01:19:51.131Z,13.10
2019-04-25T01:20:55.516Z,13.20
2019-04-25T01:21:59.791Z,13.10
2019-04-25T01:23:04.179Z,13.10
2019-04-25T01:24:09.180Z,13.10
2019-04-25T01:25:13.819Z,13.10
2019-04-25T01:26:18.335Z,13.10
2019-04-25T01:27:23.453Z,13.10
2019-04-25T01:28:27.873Z,13.10
2019-04-25T01:29:33.461Z,13.10
2019-04-25T01:30:37.848Z,13.10
2019-04-25T01:31:43.437Z,13.10
2019-04-25T01:32:48.315Z,13.10
2019-04-25T01:33:54.296Z,13.10
2019-04-25T01:35:06.251Z,13.10
2019-04-25T01:36:23.301Z,13.00
2019-04-25T01:37:45.622Z,12.90
2019-04-25T01:39:15.103Z,13.00
2019-04-25T01:40:41.211Z,12.90
2019-04-25T01:42:07.536Z,12.80
2019-04-25T01:43:23.295Z,12.80
2019-04-25T01:44:31.344Z,12.80
2019-04-25T01:45:36.025Z,12.90
2019-04-25T01:46:41.906Z,12.90
2019-04-25T01:47:46.638Z,12.90
2019-04-25T01:48:50.893Z,12.90
2019-04-25T01:49:55.559Z,12.90
2019-04-25T01:51:00.869Z,12.90
2019-04-25T01:52:05.924Z,12.90
2019-04-25T01:53:10.325Z,12.90
2019-04-25T01:54:14.639Z,12.80
2019-04-25T01:55:18.939Z,12.80
2019-04-25T01:56:24.700Z,12.90
2019-04-25T01:57:29.171Z,12.90
2019-04-25T01:58:33.811Z,12.80
2019-04-25T01:59:38.512Z,12.90
2019-04-25T02:00:46.181Z,12.90
2019-04-25T02:01:51.042Z,12.80
2019-04-25T02:02:55.853Z,12.80
2019-04-25T02:04:00.820Z,12.70
2019-04-25T02:05:07.081Z,12.70
2019-04-25T02:06:11.334Z,12.60
2019-04-25T02:07:15.678Z,12.70
2019-04-25T02:08:20.208Z,12.70
2019-04-25T02:09:25.506Z,12.70
2019-04-25T02:10:29.775Z,12.70
2019-04-25T02:11:55.622Z,12.60
2019-04-25T02:13:02.472Z,12.60
2019-04-25T02:14:07.923Z,12.60
2019-04-25T02:15:13.732Z,12.60
2019-04-25T02:16:18.074Z,12.60
2019-04-25T02:17:24.021Z,12.60
2019-04-25T02:18:28.378Z,12.60
2019-04-25T02:19:34.297Z,12.60
2019-04-25T02:20:38.707Z,12.60
2019-04-25T02:21:43.445Z,12.60
2019-04-25T02:22:47.952Z,12.60
2019-04-25T02:23:52.983Z,12.60
2019-04-25T02:24:58.337Z,12.70
2019-04-25T02:26:13.930Z,12.70
2019-04-25T02:27:08.555Z,12.70
2019-04-25T02:28:13.955Z,12.70
2019-04-25T02:29:19.659Z,12.70
2019-04-25T02:30:25.428Z,12.60
2019-04-25T02:31:29.882Z,12.60
2019-04-25T02:32:36.786Z,12.60
2019-04-25T02:33:40.085Z,12.60
2019-04-25T02:34:45.543Z,12.50
2019-04-25T02:35:50.393Z,12.50
2019-04-25T02:36:58.099Z,12.50
2019-04-25T02:38:02.375Z,12.50
2019-04-25T02:39:15.876Z,12.50
2019-04-25T02:40:23.819Z,12.50
2019-04-25T02:41:27.619Z,12.50
2019-04-25T02:42:34.229Z,12.40
2019-04-25T02:43:37.923Z,12.40
2019-04-25T02:44:47.116Z,12.40
2019-04-25T02:46:16.336Z,12.40
2019-04-25T02:47:38.362Z,12.40
2019-04-25T02:49:02.455Z,12.40
2019-04-25T02:50:24.566Z,12.30
2019-04-25T02:51:48.772Z,12.30
2019-04-25T02:53:07.309Z,12.30
2019-04-25T02:54:13.875Z,12.20
2019-04-25T02:55:30.969Z,12.20
2019-04-25T02:56:31.196Z,12.30
2019-04-25T02:57:30.069Z,12.30
2019-04-25T02:58:34.390Z,12.40
2019-04-25T02:59:38.584Z,12.40
2019-04-25T03:00:54.841Z,12.40
2019-04-25T03:01:48.818Z,12.30
2019-04-25T03:02:54.773Z,12.40
2019-04-25T03:03:59.457Z,12.30
2019-04-25T03:05:08.117Z,12.40
2019-04-25T03:06:11.292Z,12.40
2019-04-25T03:07:17.587Z,12.40
2019-04-25T03:08:24.217Z,12.30
2019-04-25T03:09:28.107Z,12.30
2019-04-25T03:10:34.783Z,12.30
2019-04-25T03:11:38.314Z,12.20
2019-04-25T03:12:44.526Z,12.20
2019-04-25T03:13:48.536Z,12.20
2019-04-25T03:14:54.961Z,12.30
2019-04-25T03:16:00.438Z,12.30
2019-04-25T03:17:08.331Z,12.30
2019-04-25T03:18:14.918Z,12.40
2019-04-25T03:19:44.039Z,12.40
2019-04-25T03:21:13.449Z,12.30
2019-04-25T03:22:15.505Z,12.30
2019-04-25T03:23:42.168Z,12.30
2019-04-25T03:24:45.875Z,12.20
2019-04-25T03:25:50.333Z,12.20
2019-04-25T03:26:54.701Z,12.10
2019-04-25T03:27:59.561Z,12.10
2019-04-25T03:29:05.242Z,12.10
2019-04-25T03:30:13.915Z,12.00
2019-04-25T03:31:22.420Z,12.00
2019-04-25T03:32:28.001Z,12.00
2019-04-25T03:33:29.394Z,12.00
2019-04-25T03:34:35.071Z,12.00
2019-04-25T03:35:39.676Z,12.10
2019-04-25T03:36:44.139Z,12.10
2019-04-25T03:37:48.493Z,12.10
2019-04-25T03:38:54.078Z,12.10
2019-04-25T03:39:58.525Z,12.10
2019-04-25T03:41:04.425Z,12.20
2019-04-25T03:42:08.881Z,12.20
2019-04-25T03:43:14.900Z,12.10
2019-04-25T03:44:19.025Z,12.10
2019-04-25T03:45:23.714Z,12.10
2019-04-25T03:46:28.121Z,12.10
2019-04-25T03:47:33.242Z,12.10
2019-04-25T03:48:37.679Z,12.10
2019-04-25T03:49:43.329Z,12.10
2019-04-25T03:50:47.827Z,12.10
2019-04-25T03:51:53.735Z,12.10
2019-04-25T03:52:58.198Z,12.10
2019-04-25T03:54:04.481Z,12.00
2019-04-25T03:55:08.690Z,11.90
2019-04-25T03:56:14.634Z,11.90
2019-04-25T03:57:19.204Z,11.80
2019-04-25T03:58:23.988Z,11.80
2019-04-25T03:59:28.431Z,11.70
2019-04-25T04:00:34.226Z,11.80
2019-04-25T04:01:38.616Z,11.80
2019-04-25T04:02:44.282Z,11.80
2019-04-25T04:03:48.805Z,11.80
2019-04-25T04:04:53.794Z,11.80
2019-04-25T04:05:58.250Z,11.90
2019-04-25T04:07:04.450Z,11.90
2019-04-25T04:08:09.775Z,11.90
2019-04-25T04:09:15.142Z,12.00
2019-04-25T04:10:21.173Z,12.00
2019-04-25T04:11:25.711Z,12.10
2019-04-25T04:12:30.068Z,12.10
2019-04-25T04:13:34.409Z,12.10
2019-04-25T04:14:38.659Z,12.00
2019-04-25T04:15:43.407Z,12.00
2019-04-25T04:17:06.698Z,12.00
2019-04-25T04:18:27.094Z,12.00
2019-04-25T04:19:34.881Z,12.00
2019-04-25T04:21:03.185Z,12.00
2019-04-25T04:22:24.118Z,11.90
2019-04-25T04:23:36.906Z,12.00
2019-04-25T04:24:48.109Z,11.90
2019-04-25T04:25:53.272Z,11.90
2019-04-25T04:27:10.497Z,11.80
2019-04-25T04:28:15.964Z,11.80
2019-04-25T04:29:20.458Z,11.80
2019-04-25T04:30:24.805Z,11.70
2019-04-25T04:31:29.208Z,11.80
2019-04-25T04:32:34.044Z,11.80
2019-04-25T04:33:38.367Z,11.90
2019-04-25T04:34:43.536Z,11.90
2019-04-25T04:35:48.717Z,12.00
2019-04-25T04:36:53.721Z,12.00
2019-04-25T04:37:58.148Z,12.00
2019-04-25T04:39:03.857Z,12.00
2019-04-25T04:40:09.577Z,12.00
2019-04-25T04:41:15.148Z,12.00
2019-04-25T04:42:19.760Z,12.00
2019-04-25T04:43:25.493Z,12.10
2019-04-25T04:44:29.882Z,12.00
2019-04-25T04:45:34.498Z,12.10
2019-04-25T04:46:39.422Z,12.10
2019-04-25T04:47:43.702Z,12.10
2019-04-25T04:48:47.907Z,12.10
2019-04-25T04:49:53.838Z,12.00
2019-04-25T04:50:58.237Z,12.10
2019-04-25T04:52:04.521Z,12.00
2019-04-25T04:53:09.195Z,12.00
2019-04-25T04:54:14.657Z,12.00
2019-04-25T04:55:19.816Z,12.00
2019-04-25T04:56:25.730Z,11.90
2019-04-25T04:57:35.576Z,11.90
2019-04-25T04:58:35.951Z,11.90
2019-04-25T04:59:40.106Z,11.90
2019-04-25T05:00:44.405Z,11.90
2019-04-25T05:02:06.083Z,11.80
2019-04-25T05:03:44.508Z,11.80
2019-04-25T05:05:06.837Z,11.90
2019-04-25T05:06:21.633Z,11.80
2019-04-25T05:07:40.704Z,11.80
2019-04-25T05:08:47.747Z,11.80
2019-04-25T05:09:53.425Z,11.80
2019-04-25T05:10:57.748Z,11.90
2019-04-25T05:12:02.050Z,11.90
2019-04-25T05:13:06.460Z,11.90
2019-04-25T05:14:11.043Z,11.90
2019-04-25T05:15:17.635Z,11.90
2019-04-25T05:16:23.707Z,11.90
2019-04-25T05:17:28.211Z,12.00
2019-04-25T05:18:39.410Z,12.00
2019-04-25T05:19:38.808Z,12.00
2019-04-25T05:20:44.068Z,12.10
2019-04-25T05:21:48.361Z,12.10
2019-04-25T05:22:54.593Z,12.10
2019-04-25T05:23:58.575Z,12.10
2019-04-25T05:25:03.464Z,12.10
2019-04-25T05:26:07.721Z,12.10
2019-04-25T05:27:12.655Z,12.10
2019-04-25T05:28:18.509Z,12.10
2019-04-25T05:29:26.489Z,12.10
2019-04-25T05:30:38.336Z,12.00
2019-04-25T05:31:45.913Z,12.10
2019-04-25T05:32:50.061Z,12.10
2019-04-25T05:33:54.203Z,12.20
2019-04-25T05:34:58.432Z,12.20
2019-04-25T05:36:03.749Z,12.20
2019-04-25T05:37:09.010Z,12.30
2019-04-25T05:38:15.015Z,12.30
2019-04-25T05:39:20.358Z,12.30
2019-04-25T05:40:25.426Z,12.30
2019-04-25T05:41:36.037Z,12.30
2019-04-25T05:42:55.039Z,12.30
2019-04-25T05:43:59.154Z,12.30
2019-04-25T05:45:04.497Z,12.30
2019-04-25T05:46:08.867Z,12.30
2019-04-25T05:47:15.062Z,12.30
2019-04-25T05:48:19.046Z,12.30
2019-04-25T05:49:24.335Z,12.30
2019-04-25T05:50:29.233Z,12.30
2019-04-25T05:51:33.918Z,12.30
2019-04-25T05:52:38.224Z,12.30
2019-04-25T05:53:43.354Z,12.30
2019-04-25T05:54:47.667Z,12.30
2019-04-25T05:55:51.819Z,12.30
2019-04-25T05:56:56.093Z,12.40
2019-04-25T05:58:00.285Z,12.30
2019-04-25T05:59:05.467Z,12.30
2019-04-25T06:00:11.023Z,12.30
2019-04-25T06:01:15.339Z,12.40
2019-04-25T06:02:19.599Z,12.40
2019-04-25T06:03:25.768Z,12.40
2019-04-25T06:04:29.609Z,12.40
2019-04-25T06:05:34.088Z,12.50
2019-04-25T06:06:38.478Z,12.50
2019-04-25T06:07:43.210Z,12.50
2019-04-25T06:08:54.203Z,12.50
2019-04-25T06:10:14.274Z,12.50
2019-04-25T06:11:28.661Z,12.50
2019-04-25T06:12:58.019Z,12.60
2019-04-25T06:14:05.644Z,12.50
2019-04-25T06:15:10.125Z,12.60
2019-04-25T06:16:28.267Z,12.60
2019-04-25T06:17:57.716Z,12.60
2019-04-25T06:19:34.079Z,12.60
2019-04-25T06:20:38.454Z,12.70
2019-04-25T06:21:43.508Z,12.70
2019-04-25T06:22:53.791Z,12.80
2019-04-25T06:24:17.088Z,12.80
2019-04-25T06:25:24.531Z,12.80
2019-04-25T06:26:35.390Z,12.80
2019-04-25T06:27:38.443Z,12.90
2019-04-25T06:28:52.093Z,12.90
2019-04-25T06:29:58.084Z,12.90
2019-04-25T06:30:57.440Z,13.00
2019-04-25T06:32:07.275Z,13.00
2019-04-25T06:33:07.831Z,12.90
2019-04-25T06:34:12.163Z,13.00
2019-04-25T06:35:16.426Z,13.00
2019-04-25T06:36:21.098Z,13.00
2019-04-25T06:37:25.947Z,13.00
2019-04-25T06:38:32.022Z,13.10
2019-04-25T06:39:37.313Z,13.10
2019-04-25T06:40:41.626Z,13.10
2019-04-25T06:41:45.931Z,13.20
2019-04-25T06:42:50.381Z,13.20
2019-04-25T06:43:56.357Z,13.20
2019-04-25T06:45:34.720Z,13.30
2019-04-25T06:46:53.863Z,13.20
2019-04-25T06:48:29.052Z,13.30
2019-04-25T06:49:37.384Z,13.40
2019-04-25T06:50:41.863Z,13.40
2019-04-25T06:51:49.796Z,13.40
2019-04-25T06:52:54.023Z,13.40
2019-04-25T06:53:58.263Z,13.40
2019-04-25T06:55:03.379Z,13.50
2019-04-25T06:56:07.837Z,13.50
2019-04-25T06:57:12.167Z,13.50
2019-04-25T06:58:16.493Z,13.50
2019-04-25T06:59:22.987Z,13.50
2019-04-25T07:00:28.820Z,13.50
2019-04-25T07:01:34.634Z,13.60
2019-04-25T07:02:38.915Z,13.60
2019-04-25T07:03:44.205Z,13.60
2019-04-25T07:04:51.401Z,13.70
2019-04-25T07:05:54.646Z,13.70
2019-04-25T07:07:09.765Z,13.70
2019-04-25T07:08:05.085Z,13.70
2019-04-25T07:09:10.727Z,13.70
2019-04-25T07:10:15.244Z,13.70
2019-04-25T07:11:19.562Z,13.70
2019-04-25T07:12:26.735Z,13.80
2019-04-25T07:13:30.487Z,13.80
2019-04-25T07:14:36.866Z,13.90
2019-04-25T07:15:40.915Z,13.90
2019-04-25T07:16:45.328Z,13.80
2019-04-25T07:17:49.537Z,13.80
2019-04-25T07:18:54.075Z,13.90
2019-04-25T07:19:58.411Z,13.90
2019-04-25T07:21:03.392Z,13.90
2019-04-25T07:22:07.911Z,13.90
2019-04-25T07:23:13.593Z,13.90
2019-04-25T07:24:17.967Z,13.90
2019-04-25T07:25:26.305Z,13.90
2019-04-25T07:27:07.341Z,14.00
2019-04-25T07:28:31.562Z,14.00
2019-04-25T07:30:04.757Z,14.00
2019-04-25T07:31:31.127Z,14.10
2019-04-25T07:32:41.229Z,14.10
2019-04-25T07:33:49.776Z,14.10
2019-04-25T07:34:55.159Z,14.20
2019-04-25T07:35:59.449Z,14.20
2019-04-25T07:37:03.699Z,14.20
2019-04-25T07:38:08.069Z,14.20
2019-04-25T07:39:13.457Z,14.20
2019-04-25T07:40:18.703Z,14.20
2019-04-25T07:41:24.201Z,14.20
2019-04-25T07:42:29.825Z,14.30
2019-04-25T07:43:35.193Z,14.30
2019-04-25T07:44:49.677Z,14.30
2019-04-25T07:45:46.121Z,14.40
2019-04-25T07:46:50.351Z,14.40
2019-04-25T07:47:54.718Z,14.40
2019-04-25T07:48:59.010Z,14.50
2019-04-25T07:50:04.034Z,14.50
2019-04-25T07:51:08.469Z,14.50
2019-04-25T07:52:13.578Z,14.50
2019-04-25T07:53:17.859Z,14.60
2019-04-25T07:54:22.205Z,14.60
2019-04-25T07:55:27.471Z,14.70
2019-04-25T07:56:31.835Z,14.70
2019-04-25T07:57:36.167Z,14.70
2019-04-25T07:58:49.162Z,14.70
2019-04-25T07:59:46.551Z,14.80
2019-04-25T08:00:50.875Z,14.80
2019-04-25T08:01:55.233Z,14.80
2019-04-25T08:02:59.576Z,14.80
2019-04-25T08:04:03.971Z,14.90
2019-04-25T08:05:14.412Z,14.90
2019-04-25T08:06:19.047Z,14.90
2019-04-25T08:07:24.063Z,14.90
2019-04-25T08:08:29.696Z,14.90
2019-04-25T08:09:35.433Z,14.90
2019-04-25T08:10:59.224Z,15.00
2019-04-25T08:12:03.531Z,15.00
2019-04-25T08:13:07.835Z,15.00
2019-04-25T08:14:20.355Z,15.00
2019-04-25T08:15:41.341Z,15.10
2019-04-25T08:16:48.095Z,15.10
2019-04-25T08:17:57.745Z,15.10
2019-04-25T08:19:04.087Z,15.10
2019-04-25T08:20:09.764Z,15.10
2019-04-25T08:21:15.350Z,15.10
2019-04-25T08:22:19.757Z,15.10
2019-04-25T08:23:24.478Z,15.10
2019-04-25T08:24:30.770Z,15.20
2019-04-25T08:25:38.904Z,15.20
2019-04-25T08:26:41.776Z,15.20
2019-04-25T08:27:46.437Z,15.20
2019-04-25T08:28:55.780Z,15.20
2019-04-25T08:29:56.691Z,15.20
2019-04-25T08:31:01.084Z,15.20
2019-04-25T08:32:05.450Z,15.20
2019-04-25T08:33:09.687Z,15.20
2019-04-25T08:34:14.653Z,15.30
2019-04-25T08:35:19.557Z,15.30
2019-04-25T08:36:23.772Z,15.30
2019-04-25T08:37:28.132Z,15.30
2019-04-25T08:38:34.656Z,15.30
2019-04-25T08:39:38.904Z,15.30
2019-04-25T08:40:44.179Z,15.40
2019-04-25T08:41:48.600Z,15.30
2019-04-25T08:42:53.804Z,15.30
2019-04-25T08:43:58.303Z,15.30
2019-04-25T08:45:03.689Z,15.30
2019-04-25T08:46:08.195Z,15.40
2019-04-25T08:47:14.311Z,15.40
2019-04-25T08:48:18.606Z,15.40
2019-04-25T08:49:45.918Z,15.40
2019-04-25T08:51:04.539Z,15.50
2019-04-25T08:52:08.857Z,15.60
2019-04-25T08:53:13.656Z,15.70
2019-04-25T08:54:32.076Z,15.70
2019-04-25T08:55:45.714Z,15.70
2019-04-25T08:56:50.622Z,15.70
2019-04-25T08:58:00.145Z,15.70
2019-04-25T08:59:32.758Z,15.70
2019-04-25T09:01:17.405Z,15.70
2019-04-25T09:02:38.560Z,15.70
2019-04-25T09:03:48.504Z,15.80
2019-04-25T09:05:10.431Z,15.70
2019-04-25T09:06:14.763Z,15.70
2019-04-25T09:07:19.089Z,15.70
2019-04-25T09:08:24.065Z,15.70
2019-04-25T09:09:28.762Z,15.70
2019-04-25T09:10:35.761Z,15.70
2019-04-25T09:11:40.059Z,15.70
2019-04-25T09:12:45.399Z,15.70
2019-04-25T09:13:49.739Z,15.80
2019-04-25T09:14:57.033Z,15.80
2019-04-25T09:16:01.271Z,15.80
2019-04-25T09:17:05.487Z,15.80
2019-04-25T09:18:09.818Z,15.80
2019-04-25T09:19:14.305Z,15.80
2019-04-25T09:20:18.691Z,15.70
2019-04-25T09:21:23.767Z,15.70
2019-04-25T09:22:28.257Z,15.70
2019-04-25T09:23:34.435Z,15.80
2019-04-25T09:24:39.020Z,15.90
2019-04-25T09:25:45.804Z,15.90
2019-04-25T09:26:50.257Z,15.90
2019-04-25T09:27:54.548Z,15.90
2019-04-25T09:28:59.333Z,16.00
2019-04-25T09:30:05.752Z,16.00
2019-04-25T09:31:10.053Z,16.00
2019-04-25T09:32:14.425Z,16.00
2019-04-25T09:33:18.632Z,16.00
2019-04-25T09:34:23.805Z,16.00
2019-04-25T09:35:28.344Z,16.00
2019-04-25T09:36:33.609Z,16.00
2019-04-25T09:37:38.738Z,15.90
2019-04-25T09:38:46.968Z,15.90
2019-04-25T09:39:59.949Z,16.00
2019-04-25T09:41:04.214Z,15.90
2019-04-25T09:42:08.560Z,16.00
2019-04-25T09:43:13.641Z,16.00
2019-04-25T09:44:20.365Z,16.00
2019-04-25T09:45:37.592Z,16.00
2019-04-25T09:46:43.808Z,16.10
2019-04-25T09:47:48.801Z,16.40
2019-04-25T09:49:14.152Z,16.60
2019-04-25T09:50:40.255Z,16.60
2019-04-25T09:51:57.887Z,16.50
2019-04-25T09:53:02.382Z,16.60
2019-04-25T09:55:47.215Z,16.70
2019-04-25T09:56:53.243Z,16.90
2019-04-25T09:58:21.021Z,16.90
2019-04-25T09:59:29.219Z,17.00
2019-04-25T10:00:36.389Z,17.10
2019-04-25T10:01:41.811Z,17.20
2019-04-25T10:02:46.973Z,17.20
2019-04-25T10:03:51.355Z,17.30
2019-04-25T10:04:55.796Z,17.30
2019-04-25T10:06:00.165Z,17.40
2019-04-25T10:07:04.940Z,17.60
2019-04-25T10:08:09.244Z,17.90
2019-04-25T10:09:15.552Z,18.00
2019-04-25T10:10:19.949Z,18.20
2019-04-25T10:11:24.323Z,18.50
2019-04-25T10:12:28.945Z,18.40
2019-04-25T10:13:33.777Z,18.40
2019-04-25T10:15:10.880Z,18.30
2019-04-25T10:16:15.127Z,18.20
2019-04-25T10:17:19.569Z,18.10
2019-04-25T10:18:23.781Z,18.20
2019-04-25T10:19:28.506Z,18.20
2019-04-25T10:20:33.366Z,18.30
2019-04-25T10:21:38.090Z,18.20
2019-04-25T10:22:44.266Z,18.10
2019-04-25T10:23:51.107Z,18.10
2019-04-25T10:25:00.170Z,18.10
2019-04-25T10:26:00.991Z,18.10
2019-04-25T10:27:05.411Z,18.20
2019-04-25T10:28:09.709Z,18.20
2019-04-25T10:29:14.017Z,18.20
2019-04-25T10:30:23.072Z,18.70
2019-04-25T10:31:24.793Z,18.80
2019-04-25T10:32:28.995Z,18.80
2019-04-25T10:33:33.251Z,18.80
2019-04-25T10:34:37.518Z,18.70
2019-04-25T10:35:52.085Z,18.60
2019-04-25T10:36:48.938Z,18.50
2019-04-25T10:37:54.890Z,18.80
2019-04-25T10:39:07.237Z,18.90
2019-04-25T10:40:08.244Z,19.30
2019-04-25T10:41:14.192Z,19.40
2019-04-25T10:42:18.755Z,19.20
2019-04-25T10:43:24.087Z,19.00
2019-04-25T10:44:28.382Z,18.80
2019-04-25T10:45:34.037Z,18.80
2019-04-25T10:46:39.356Z,18.60
2019-04-25T10:47:45.251Z,18.50
2019-04-25T10:48:49.571Z,18.40
2019-04-25T10:49:55.507Z,18.70
2019-04-25T10:50:59.837Z,18.60
2019-04-25T10:52:04.983Z,18.60
2019-04-25T10:53:09.334Z,18.90
2019-04-25T10:54:14.582Z,18.90
2019-04-25T10:55:19.022Z,18.80
2019-04-25T10:56:24.325Z,18.90
2019-04-25T10:57:29.204Z,18.80
2019-04-25T10:58:33.801Z,18.70
2019-04-25T10:59:52.954Z,18.70
2019-04-25T11:00:48.676Z,18.60
2019-04-25T11:01:53.871Z,18.60
2019-04-25T11:03:04.720Z,18.50
2019-04-25T11:04:18.175Z,18.40
2019-04-25T11:05:23.846Z,18.50
2019-04-25T11:06:29.307Z,18.90
2019-04-25T11:07:33.999Z,19.00
2019-04-25T11:08:39.494Z,19.60
2019-04-25T11:09:45.535Z,19.70
2019-04-25T11:10:50.483Z,19.70
2019-04-25T11:11:55.015Z,19.50
2019-04-25T11:12:59.335Z,19.30
2019-04-25T11:14:03.721Z,19.20
2019-04-25T11:15:08.681Z,19.10
2019-04-25T11:16:15.071Z,19.50
2019-04-25T11:17:19.425Z,19.60
2019-04-25T11:18:23.918Z,19.70
2019-04-25T11:19:28.406Z,19.90
2019-04-25T11:20:33.838Z,19.90
2019-04-25T11:21:38.355Z,19.90
2019-04-25T11:22:44.751Z,19.80
2019-04-25T11:23:49.128Z,19.60
2019-04-25T11:24:54.563Z,19.60
2019-04-25T11:25:58.883Z,19.60
2019-04-25T11:27:04.317Z,19.50
2019-04-25T11:28:10.334Z,19.40
2019-04-25T11:29:15.085Z,19.20
2019-04-25T11:30:20.088Z,19.10
2019-04-25T11:31:28.959Z,19.10
2019-04-25T11:32:33.912Z,19.60
2019-04-25T11:33:38.399Z,19.60
2019-04-25T11:34:43.399Z,19.80
2019-04-25T11:35:49.091Z,19.80
2019-04-25T11:36:54.542Z,20.00
2019-04-25T11:38:01.471Z,20.30
2019-04-25T11:39:28.303Z,20.10
2019-04-25T11:40:47.843Z,19.80
2019-04-25T11:41:49.807Z,19.60
2019-04-25T11:42:54.591Z,19.50
2019-04-25T11:44:00.461Z,19.30
2019-04-25T11:45:06.813Z,19.50
2019-04-25T11:46:11.305Z,19.50
2019-04-25T11:47:15.692Z,19.30
2019-04-25T11:48:20.063Z,19.50
2019-04-25T11:49:24.276Z,19.70
2019-04-25T11:50:29.060Z,19.60
2019-04-25T11:51:34.089Z,20.00
2019-04-25T11:52:38.571Z,20.70
2019-04-25T11:53:45.035Z,20.50
2019-04-25T11:54:49.940Z,20.20
2019-04-25T11:55:54.726Z,20.00
2019-04-25T11:56:59.020Z,19.80
2019-04-25T11:58:03.752Z,19.60
2019-04-25T11:59:08.415Z,19.60
2019-04-25T12:00:21.926Z,19.50
2019-04-25T12:01:19.147Z,19.60
2019-04-25T12:02:23.984Z,19.60
2019-04-25T12:03:28.415Z,19.50
2019-04-25T12:04:33.236Z,19.30
2019-04-25T12:05:37.791Z,19.20
2019-04-25T12:06:43.127Z,19.00
2019-04-25T12:07:48.359Z,18.90
2019-04-25T12:08:54.201Z,18.90
2019-04-25T12:09:58.874Z,18.80
2019-04-25T12:11:03.332Z,18.70
2019-04-25T12:12:07.795Z,18.70
2019-04-25T12:13:13.358Z,18.70
2019-04-25T12:14:18.461Z,18.70
2019-04-25T12:15:24.091Z,18.90
2019-04-25T12:16:29.113Z,18.90
2019-04-25T12:17:35.145Z,18.90
2019-04-25T12:18:39.432Z,19.10
2019-04-25T12:19:43.738Z,19.20
2019-04-25T12:20:48.746Z,19.10
2019-04-25T12:21:53.551Z,19.10
2019-04-25T12:23:08.526Z,19.00
2019-04-25T12:24:05.796Z,18.80
2019-04-25T12:25:10.426Z,18.70
2019-04-25T12:26:14.766Z,18.80
2019-04-25T12:27:19.068Z,18.90
2019-04-25T12:28:23.562Z,18.90
2019-04-25T12:29:27.872Z,18.80
2019-04-25T12:30:38.300Z,18.70
2019-04-25T12:31:38.282Z,19.10
2019-04-25T12:32:44.174Z,19.10
2019-04-25T12:33:49.086Z,19.00
2019-04-25T12:34:54.353Z,18.80
2019-04-25T12:35:58.662Z,18.70
2019-04-25T12:37:03.836Z,18.80
2019-04-25T12:38:08.395Z,18.90
2019-04-25T12:39:13.982Z,18.80
2019-04-25T12:40:18.547Z,18.70
2019-04-25T12:41:23.163Z,18.50
2019-04-25T12:42:27.403Z,18.40
2019-04-25T12:43:33.924Z,18.30
2019-04-25T12:45:06.337Z,18.30
2019-04-25T12:46:16.571Z,18.30
2019-04-25T12:47:23.872Z,18.30
2019-04-25T12:48:28.301Z,18.80
2019-04-25T12:49:34.434Z,19.00
2019-04-25T12:50:38.881Z,18.90
2019-04-25T12:51:43.686Z,18.70
2019-04-25T12:52:48.685Z,18.60
2019-04-25T12:53:54.730Z,18.70
2019-04-25T12:54:59.277Z,18.90
2019-04-25T12:56:04.375Z,18.90
2019-04-25T12:57:09.335Z,18.90
2019-04-25T12:58:13.722Z,18.90
2019-04-25T12:59:18.121Z,18.80
2019-04-25T13:00:25.311Z,19.40
2019-04-25T13:01:29.505Z,19.70
2019-04-25T13:02:36.292Z,19.90
2019-04-25T13:03:40.232Z,19.90
2019-04-25T13:04:44.551Z,19.60
2019-04-25T13:05:48.950Z,19.30
2019-04-25T13:06:54.480Z,19.10
2019-04-25T13:07:59.894Z,19.20
2019-04-25T13:09:07.065Z,19.40
2019-04-25T13:10:13.127Z,19.60
2019-04-25T13:11:18.371Z,19.90
2019-04-25T13:12:23.452Z,19.90
2019-04-25T13:13:27.849Z,19.90
2019-04-25T13:14:32.203Z,19.90
2019-04-25T13:15:36.641Z,20.20
2019-04-25T13:16:41.033Z,20.10
2019-04-25T13:17:45.246Z,20.00
2019-04-25T13:18:49.567Z,20.20
2019-04-25T13:19:54.398Z,20.00
2019-04-25T13:20:58.765Z,20.00
2019-04-25T13:22:03.584Z,19.90
2019-04-25T13:23:08.980Z,19.80
2019-04-25T13:24:13.277Z,19.90
2019-04-25T13:25:19.304Z,19.90
2019-04-25T13:26:26.103Z,20.10
2019-04-25T13:27:35.983Z,20.00
2019-04-25T13:29:09.215Z,19.80
2019-04-25T13:30:31.797Z,20.00
2019-04-25T13:31:44.711Z,19.90
2019-04-25T13:33:16.293Z,19.70
2019-04-25T13:34:35.677Z,19.40
2019-04-25T13:35:34.084Z,19.20
2019-04-25T13:36:38.310Z,19.40
2019-04-25T13:37:43.925Z,20.10
2019-04-25T13:38:48.305Z,20.50
2019-04-25T13:39:54.032Z,20.50
2019-04-25T13:40:59.401Z,20.30
2019-04-25T13:42:05.561Z,20.40
2019-04-25T13:43:10.347Z,20.50
2019-04-25T13:44:14.729Z,20.20
2019-04-25T13:45:19.287Z,19.90
2019-04-25T13:46:26.137Z,19.50
2019-04-25T13:47:30.678Z,19.30
2019-04-25T13:48:35.655Z,19.20
2019-04-25T13:49:40.055Z,19.10
2019-04-25T13:50:44.460Z,19.00
2019-04-25T13:51:50.272Z,18.90
2019-04-25T13:52:54.809Z,18.80
2019-04-25T13:53:59.129Z,19.40
2019-04-25T13:55:03.793Z,19.60
2019-04-25T13:56:08.261Z,19.50
2019-04-25T13:57:13.312Z,19.40
2019-04-25T13:58:18.084Z,19.20
2019-04-25T13:59:22.338Z,19.10
2019-04-25T14:00:27.753Z,19.10
2019-04-25T14:01:33.546Z,19.00
2019-04-25T14:02:38.387Z,19.00
2019-04-25T14:03:44.295Z,18.90
2019-04-25T14:04:48.931Z,18.90
2019-04-25T14:05:53.965Z,18.90
2019-04-25T14:06:58.871Z,18.90
2019-04-25T14:08:03.103Z,19.10
2019-04-25T14:09:11.195Z,19.10
2019-04-25T14:10:15.512Z,19.10
2019-04-25T14:11:20.720Z,19.30
2019-04-25T14:12:26.886Z,19.30
2019-04-25T14:13:32.210Z,19.20
2019-04-25T14:14:36.541Z,19.20
2019-04-25T14:15:45.427Z,19.40
2019-04-25T14:17:07.328Z,19.40
2019-04-25T14:18:41.034Z,19.90
2019-04-25T14:20:10.331Z,20.30
2019-04-25T14:21:17.303Z,20.00
2019-04-25T14:22:22.227Z,19.60
2019-04-25T14:23:27.425Z,19.50
2019-04-25T14:24:32.307Z,20.20
2019-04-25T14:25:37.532Z,20.90
2019-04-25T14:26:41.732Z,20.70